Time;durP1;ratioP1;P1;durP2;ratioP2;P2;SDS_P1;SDS_P2;PMS_P1;PMS_P2;Temp;Humidity;BMP_temperature;BMP_pressure;BME280_temperature;BME280_humidity;BME280_pressure;Samples;Min_cycle;Max_cycle;Signal;HPM_P1;HPM_P2
2022/04/03 00:01:51;;;;;;;7.97;7.10;;;;;;;5.45;52.33;99486.84;4213758;28;20243;-64
2022/04/03 00:03:53;;;;;;;12.40;7.03;;;;;;;6.68;50.12;99477.75;4189215;28;20275;-64
2022/04/03 00:05:55;;;;;;;8.60;7.30;;;;;;;6.46;50.98;99479.72;4210284;28;20382;-63
2022/04/03 00:07:56;;;;;;;9.63;7.67;;;;;;;6.10;51.63;99497.91;4210638;28;20238;-64
2022/04/03 00:09:59;;;;;;;8.13;7.13;;;;;;;6.50;50.36;99467.91;4209971;28;20426;-63
2022/04/03 00:12:02;;;;;;;8.30;7.33;;;;;;;5.70;51.98;99474.19;4212060;28;20316;-63
2022/04/03 00:14:04;;;;;;;8.73;7.47;;;;;;;6.35;50.79;99478.06;4215386;27;21308;-64
2022/04/03 00:16:06;;;;;;;8.53;6.90;;;;;;;6.30;50.84;99487.38;4215669;28;20254;-65
2022/04/03 00:18:08;;;;;;;10.67;7.97;;;;;;;6.60;49.45;99459.97;4191207;28;20641;-63
2022/04/03 00:20:11;;;;;;;12.70;8.03;;;;;;;6.64;49.77;99466.66;4193171;28;20233;-63
2022/04/03 00:22:13;;;;;;;8.83;7.93;;;;;;;6.56;49.56;99452.47;4207601;28;20699;-63
2022/04/03 00:24:15;;;;;;;9.47;7.63;;;;;;;6.69;49.73;99480.28;4201700;28;20919;-64
2022/04/03 00:26:17;;;;;;;9.03;7.83;;;;;;;5.42;51.89;99479.22;4195329;28;20279;-63
2022/04/03 00:28:20;;;;;;;9.00;6.87;;;;;;;6.22;51.39;99498.59;4200576;28;20341;-64
2022/04/03 00:30:22;;;;;;;9.77;7.73;;;;;;;6.09;51.47;99498.84;4192432;28;20240;-64
2022/04/03 00:32:24;;;;;;;9.20;8.23;;;;;;;6.66;49.58;99483.19;4198058;28;20247;-64
2022/04/03 00:34:25;;;;;;;8.20;7.40;;;;;;;6.60;49.98;99480.28;4191377;28;20257;-64
2022/04/03 00:36:27;;;;;;;9.23;7.57;;;;;;;6.83;49.33;99479.00;4188063;28;20263;-64
2022/04/03 00:38:29;;;;;;;9.43;7.93;;;;;;;6.72;49.71;99480.00;4192988;28;20255;-64
2022/04/03 00:40:31;;;;;;;9.10;8.03;;;;;;;6.67;49.70;99490.16;4195372;28;20324;-64
2022/04/03 00:42:34;;;;;;;9.07;7.63;;;;;;;6.60;49.79;99474.97;4204415;28;20866;-64
2022/04/03 00:44:36;;;;;;;10.97;8.60;;;;;;;6.43;50.22;99479.97;4208306;28;20853;-64
2022/04/03 00:46:40;;;;;;;9.33;8.10;;;;;;;6.41;50.33;99492.50;4209544;28;20718;-64
2022/04/03 00:48:44;;;;;;;8.70;7.57;;;;;;;6.91;49.19;99499.47;4205950;28;20722;-64
2022/04/03 00:50:46;;;;;;;9.50;7.80;;;;;;;6.94;49.22;99485.97;4199850;28;20260;-64
2022/04/03 00:52:48;;;;;;;8.50;7.60;;;;;;;6.51;50.10;99487.22;4195356;28;20256;-64
2022/04/03 00:54:51;;;;;;;8.90;7.60;;;;;;;7.08;48.89;99496.09;4204677;28;20231;-64
2022/04/03 00:56:52;;;;;;;9.93;7.57;;;;;;;6.72;49.91;99493.22;4213208;28;20649;-65
2022/04/03 00:58:54;;;;;;;9.67;7.80;;;;;;;6.98;49.30;99489.16;4216033;27;20253;-63
2022/04/03 01:00:56;;;;;;;9.10;7.33;;;;;;;6.36;50.62;99486.81;4216060;28;20225;-63
2022/04/03 01:02:58;;;;;;;8.37;7.57;;;;;;;6.50;50.80;99501.41;4211704;28;20260;-64
2022/04/03 01:05:01;;;;;;;7.70;6.90;;;;;;;6.82;49.84;99498.50;4210404;28;20240;-64
2022/04/03 01:07:04;;;;;;;8.47;7.07;;;;;;;6.21;51.13;99519.88;4215762;28;20322;-63
2022/04/03 01:09:06;;;;;;;9.87;7.50;;;;;;;6.52;50.43;99473.06;4213761;28;20272;-63
2022/04/03 01:11:11;;;;;;;8.53;6.93;;;;;;;6.26;51.45;99517.66;4210343;28;20322;-63
2022/04/03 01:13:13;;;;;;;9.83;7.17;;;;;;;5.74;52.74;99542.38;4209997;28;20281;-63
2022/04/03 01:15:16;;;;;;;9.73;7.63;;;;;;;5.45;52.16;99491.31;4204936;28;20267;-63
2022/04/03 01:17:18;;;;;;;10.07;8.37;;;;;;;6.03;51.44;99499.41;4214458;28;20615;-63
2022/04/03 01:19:19;;;;;;;8.73;7.83;;;;;;;6.50;51.07;99491.69;4209631;28;20366;-63
2022/04/03 01:21:21;;;;;;;9.63;8.50;;;;;;;6.29;51.10;99497.09;4212075;28;20428;-63
2022/04/03 01:23:25;;;;;;;10.37;8.27;;;;;;;6.17;51.33;99485.00;4210667;28;20716;-63
2022/04/03 01:25:27;;;;;;;9.13;7.53;;;;;;;5.71;52.46;99529.47;4215967;28;20798;-63
2022/04/03 01:27:28;;;;;;;8.33;7.20;;;;;;;5.44;53.14;99506.31;4213530;28;20295;-63
2022/04/03 01:29:30;;;;;;;9.07;7.43;;;;;;;6.81;50.45;99490.69;4214606;28;20249;-64
2022/04/03 01:31:32;;;;;;;8.67;7.77;;;;;;;6.66;50.17;99458.59;4209232;28;20255;-63
2022/04/03 01:33:33;;;;;;;9.80;7.90;;;;;;;6.95;49.56;99468.31;4229162;27;21128;-64
2022/04/03 01:35:35;;;;;;;11.93;8.10;;;;;;;6.95;49.83;99474.41;4211390;28;20220;-63
2022/04/03 01:37:37;;;;;;;9.60;7.80;;;;;;;7.32;49.00;99470.16;4211159;28;20252;-64
2022/04/03 01:39:38;;;;;;;7.20;6.47;;;;;;;6.65;50.66;99489.47;4210925;28;20229;-64
2022/04/03 01:41:41;;;;;;;8.23;7.07;;;;;;;6.97;49.21;99447.84;4211625;28;20338;-64
2022/04/03 01:43:43;;;;;;;8.20;7.03;;;;;;;6.66;50.77;99488.47;4208655;28;20682;-63
2022/04/03 01:45:45;;;;;;;11.00;6.70;;;;;;;6.87;49.92;99475.09;4209950;28;20270;-63
2022/04/03 01:47:46;;;;;;;7.90;6.97;;;;;;;6.78;50.26;99483.03;4211193;28;20331;-64
2022/04/03 01:49:48;;;;;;;8.83;7.10;;;;;;;6.85;49.17;99455.91;4189651;28;20256;-63
2022/04/03 01:51:50;;;;;;;8.10;6.83;;;;;;;6.04;51.94;99527.47;4188594;28;20236;-63
2022/04/03 01:53:51;;;;;;;8.40;6.67;;;;;;;6.19;50.94;99471.66;4189251;28;20241;-64
2022/04/03 01:55:59;;;;;;;8.07;7.13;;;;;;;6.89;49.74;99467.03;4187220;28;20259;-64
2022/04/03 01:58:06;;;;;;;7.23;6.50;;;;;;;6.46;51.09;99490.28;4194625;28;20258;-64
2022/04/03 02:00:10;;;;;;;9.60;7.40;;;;;;;6.65;50.11;99467.47;4207591;28;20219;-63
2022/04/03 02:02:12;;;;;;;9.03;6.70;;;;;;;6.82;50.57;99479.13;4213071;28;20723;-64
2022/04/03 02:04:14;;;;;;;7.60;6.50;;;;;;;6.10;52.13;99505.00;4212078;28;20675;-64
2022/04/03 02:06:15;;;;;;;8.83;6.93;;;;;;;6.98;49.33;99452.16;4208028;28;20968;-64
2022/04/03 02:08:17;;;;;;;9.03;7.47;;;;;;;6.95;49.78;99455.09;4210278;28;20228;-64
2022/04/03 02:10:19;;;;;;;9.37;7.93;;;;;;;6.96;49.99;99489.31;4214298;28;20277;-63
2022/04/03 02:12:21;;;;;;;9.87;7.27;;;;;;;6.95;49.61;99473.59;4205317;28;20233;-63
2022/04/03 02:14:26;;;;;;;8.13;7.30;;;;;;;6.58;50.94;99495.44;4220913;28;20585;-64
2022/04/03 02:16:27;;;;;;;8.17;6.73;;;;;;;7.08;49.60;99463.53;4215032;28;20251;-64
2022/04/03 02:18:29;;;;;;;8.20;7.33;;;;;;;7.03;49.73;99471.06;4208274;28;20311;-64
2022/04/03 02:20:34;;;;;;;8.80;7.30;;;;;;;7.24;49.56;99476.16;4214435;28;20240;-65
2022/04/03 02:22:36;;;;;;;9.13;6.90;;;;;;;6.71;50.24;99488.06;4211079;28;20238;-64
2022/04/03 02:24:38;;;;;;;7.67;6.87;;;;;;;6.91;49.55;99468.59;4232907;27;20706;-64
2022/04/03 02:26:40;;;;;;;7.60;6.27;;;;;;;7.20;49.43;99475.59;4208980;28;20342;-64
2022/04/03 02:28:43;;;;;;;8.47;6.77;;;;;;;7.37;48.93;99471.38;4230260;27;20794;-64
2022/04/03 02:30:45;;;;;;;8.90;6.90;;;;;;;6.34;50.65;99500.13;4207123;28;20267;-64
2022/04/03 02:32:47;;;;;;;8.50;6.77;;;;;;;7.07;49.65;99469.78;4216857;28;20230;-64
2022/04/03 02:34:48;;;;;;;7.43;6.70;;;;;;;6.91;50.28;99481.78;4217176;28;20262;-64
2022/04/03 02:36:50;;;;;;;7.70;6.90;;;;;;;6.97;49.88;99476.91;4213371;28;20906;-64
2022/04/03 02:38:51;;;;;;;7.40;6.50;;;;;;;6.56;51.05;99500.84;4211739;28;20240;-64
2022/04/03 02:40:53;;;;;;;8.60;6.80;;;;;;;6.75;50.46;99492.06;4208670;28;20259;-64
2022/04/03 02:42:55;;;;;;;7.90;6.40;;;;;;;6.57;50.85;99489.31;4198765;28;20237;-64
2022/04/03 02:44:56;;;;;;;9.00;6.93;;;;;;;6.51;51.02;99474.03;4205901;28;20316;-64
2022/04/03 02:46:58;;;;;;;7.77;6.73;;;;;;;6.76;50.85;99493.75;4193979;28;20693;-64
2022/04/03 02:49:00;;;;;;;7.63;6.40;;;;;;;6.44;50.56;99481.66;4189106;28;20694;-64
2022/04/03 02:51:01;;;;;;;9.30;7.53;;;;;;;7.35;49.42;99491.03;4191826;28;20875;-64
2022/04/03 02:53:03;;;;;;;7.47;6.70;;;;;;;7.52;49.06;99476.19;4189803;28;20747;-64
2022/04/03 02:55:05;;;;;;;8.33;6.63;;;;;;;7.84;48.00;99475.75;4191206;28;20264;-64
2022/04/03 02:57:07;;;;;;;7.33;6.57;;;;;;;7.34;48.49;99445.22;4191180;28;20264;-64
2022/04/03 02:59:09;;;;;;;7.13;6.27;;;;;;;7.10;49.87;99472.97;4184657;28;20270;-64
2022/04/03 03:01:11;;;;;;;7.90;6.30;;;;;;;7.57;48.98;99479.25;4189228;28;20345;-64
2022/04/03 03:03:12;;;;;;;8.33;7.17;;;;;;;7.62;48.76;99477.81;4185817;28;20851;-64
2022/04/03 03:05:14;;;;;;;8.27;6.40;;;;;;;7.24;49.76;99476.16;4188755;28;20241;-64
2022/04/03 03:07:16;;;;;;;7.60;6.80;;;;;;;7.50;48.82;99459.66;4188832;28;20321;-64
2022/04/03 03:09:18;;;;;;;8.83;6.67;;;;;;;6.93;50.30;99472.91;4188809;28;20243;-64
2022/04/03 03:11:19;;;;;;;10.37;7.30;;;;;;;6.70;50.74;99510.16;4188604;28;20283;-64
2022/04/03 03:13:21;;;;;;;9.00;6.80;;;;;;;7.37;49.37;99483.78;4187656;28;20307;-64
2022/04/03 03:15:23;;;;;;;8.53;6.60;;;;;;;7.27;49.70;99484.63;4189102;28;20234;-64
2022/04/03 03:17:24;;;;;;;8.37;6.47;;;;;;;7.54;48.98;99466.31;4187001;28;20236;-64
2022/04/03 03:19:26;;;;;;;10.33;7.30;;;;;;;7.60;48.60;99474.50;4188874;28;20391;-64
2022/04/03 03:21:28;;;;;;;11.23;7.73;;;;;;;6.21;50.93;99464.41;4186382;28;20736;-64
2022/04/03 03:23:29;;;;;;;8.67;6.87;;;;;;;6.79;50.85;99511.13;4185958;28;20274;-64
2022/04/03 03:25:31;;;;;;;7.77;6.67;;;;;;;5.95;52.73;99544.94;4186163;28;20680;-64
2022/04/03 03:27:38;;;;;;;10.87;8.20;;;;;;;6.78;50.99;99504.19;4190704;28;20316;-64
2022/04/03 03:29:39;;;;;;;9.07;6.27;;;;;;;7.44;48.93;99479.56;4192438;28;20243;-64
2022/04/03 03:31:41;;;;;;;8.17;6.67;;;;;;;6.64;50.31;99484.31;4185677;28;20735;-64
2022/04/03 03:33:43;;;;;;;9.50;6.77;;;;;;;6.77;50.87;99510.44;4189898;28;20611;-64
2022/04/03 03:35:44;;;;;;;8.23;7.43;;;;;;;7.20;49.80;99491.47;4189020;28;20252;-64
2022/04/03 03:37:46;;;;;;;8.27;7.13;;;;;;;7.38;49.07;99482.78;4185217;28;20260;-64
2022/04/03 03:39:48;;;;;;;7.83;6.40;;;;;;;7.40;49.21;99481.66;4188763;28;20259;-64
2022/04/03 03:41:50;;;;;;;8.13;7.03;;;;;;;6.67;50.34;99503.38;4186376;28;20267;-64
2022/04/03 03:43:52;;;;;;;8.63;6.73;;;;;;;7.32;49.37;99496.59;4186794;28;20740;-64
2022/04/03 03:45:54;;;;;;;10.73;7.70;;;;;;;6.66;50.74;99506.13;4206152;28;20237;-64
2022/04/03 03:47:57;;;;;;;8.20;6.90;;;;;;;6.85;50.07;99484.13;4191746;28;20243;-64
2022/04/03 03:49:59;;;;;;;8.03;6.40;;;;;;;6.87;50.58;99500.69;4194281;28;20332;-64
2022/04/03 03:52:01;;;;;;;9.43;7.00;;;;;;;6.90;50.56;99509.16;4192258;28;20902;-64
2022/04/03 03:54:03;;;;;;;7.33;6.40;;;;;;;6.88;50.25;99486.50;4190965;28;20262;-65
2022/04/03 03:56:05;;;;;;;8.93;6.90;;;;;;;7.21;49.91;99487.88;4191447;28;20275;-64
2022/04/03 03:58:07;;;;;;;10.03;7.50;;;;;;;7.36;49.39;99485.59;4188431;28;20233;-64
2022/04/03 04:00:10;;;;;;;8.63;6.77;;;;;;;6.94;49.92;99495.69;4202418;28;20308;-64
2022/04/03 04:02:11;;;;;;;8.67;6.90;;;;;;;7.13;49.82;99498.31;4193734;28;20260;-64
2022/04/03 04:04:13;;;;;;;10.00;7.03;;;;;;;6.88;50.30;99511.13;4190114;28;20316;-64
2022/04/03 04:06:15;;;;;;;8.90;7.00;;;;;;;6.71;49.98;99495.97;4190712;28;20880;-65
2022/04/03 04:08:16;;;;;;;8.70;7.67;;;;;;;6.79;50.05;99504.06;4191301;28;20241;-64
2022/04/03 04:10:19;;;;;;;8.90;6.77;;;;;;;7.00;49.66;99493.31;4190733;28;20683;-64
2022/04/03 04:12:20;;;;;;;8.50;7.13;;;;;;;6.45;49.94;99477.22;4187987;28;20264;-64
2022/04/03 04:14:22;;;;;;;8.10;7.30;;;;;;;6.92;49.98;99506.41;4187738;28;20618;-65
2022/04/03 04:16:24;;;;;;;9.20;6.73;;;;;;;6.94;49.77;99512.41;4184267;28;20261;-64
2022/04/03 04:18:26;;;;;;;7.67;6.70;;;;;;;6.32;50.13;99486.25;4187926;28;20318;-64
2022/04/03 04:20:28;;;;;;;8.40;6.67;;;;;;;6.76;49.59;99514.06;4189547;28;20251;-64
2022/04/03 04:22:30;;;;;;;9.43;6.53;;;;;;;6.86;50.01;99523.66;4191440;28;20453;-65
2022/04/03 04:24:32;;;;;;;8.47;6.43;;;;;;;7.17;49.53;99504.16;4190011;28;20255;-64
2022/04/03 04:26:34;;;;;;;9.47;7.10;;;;;;;6.63;49.68;99517.81;4193516;28;20290;-64
2022/04/03 04:28:36;;;;;;;8.30;6.83;;;;;;;7.00;49.37;99513.66;4193304;28;20236;-64
2022/04/03 04:30:38;;;;;;;8.57;6.87;;;;;;;7.37;48.36;99497.81;4189435;28;20235;-64
2022/04/03 04:32:41;;;;;;;7.37;6.30;;;;;;;6.94;49.40;99524.78;4193748;28;20266;-64
2022/04/03 04:34:42;;;;;;;9.27;7.13;;;;;;;7.25;48.88;99515.69;4192534;28;20312;-64
2022/04/03 04:36:44;;;;;;;8.73;7.07;;;;;;;6.48;50.04;99520.03;4191445;28;20257;-64
2022/04/03 04:38:47;;;;;;;7.50;6.37;;;;;;;7.33;48.56;99514.13;4193212;28;20260;-64
2022/04/03 04:40:49;;;;;;;9.10;6.67;;;;;;;6.70;49.68;99508.38;4192545;28;20269;-64
2022/04/03 04:42:51;;;;;;;8.30;6.77;;;;;;;6.91;49.87;99539.13;4190689;28;20289;-65
2022/04/03 04:44:53;;;;;;;7.47;6.17;;;;;;;6.57;50.77;99563.28;4190800;28;20269;-65
2022/04/03 04:46:54;;;;;;;7.60;6.50;;;;;;;6.34;50.93;99547.69;4193333;28;20280;-64
2022/04/03 04:48:57;;;;;;;8.87;6.80;;;;;;;6.37;51.48;99570.34;4191115;28;20242;-64
2022/04/03 04:50:58;;;;;;;9.77;7.07;;;;;;;6.71;49.92;99517.13;4192771;28;20233;-65
2022/04/03 04:53:01;;;;;;;8.57;6.53;;;;;;;6.80;49.98;99533.94;4192671;28;20239;-65
2022/04/03 04:55:05;;;;;;;9.83;6.67;;;;;;;6.38;50.30;99545.59;4192302;28;20280;-65
2022/04/03 04:57:07;;;;;;;9.77;7.37;;;;;;;6.88;49.63;99542.00;4193091;28;20264;-64
2022/04/03 04:59:09;;;;;;;7.67;6.83;;;;;;;6.67;49.98;99558.84;4192764;28;20291;-65
2022/04/03 05:01:10;;;;;;;9.77;6.57;;;;;;;7.13;48.90;99537.16;4192810;28;20254;-65
2022/04/03 05:03:12;;;;;;;8.27;6.27;;;;;;;7.08;49.23;99522.53;4191674;28;20268;-65
2022/04/03 05:05:15;;;;;;;7.70;6.00;;;;;;;6.80;49.68;99561.19;4193156;28;20263;-65
2022/04/03 05:07:17;;;;;;;8.30;7.43;;;;;;;6.43;50.49;99561.03;4192253;28;20257;-65
2022/04/03 05:09:20;;;;;;;6.87;6.10;;;;;;;6.77;49.96;99556.22;4191644;28;20477;-65
2022/04/03 05:11:23;;;;;;;7.23;6.50;;;;;;;6.26;50.69;99573.09;4193026;28;20240;-64
2022/04/03 05:13:25;;;;;;;7.87;6.53;;;;;;;6.05;51.30;99578.47;4191169;28;20262;-64
2022/04/03 05:15:29;;;;;;;7.77;6.67;;;;;;;5.80;52.02;99567.41;4191538;28;20235;-65
2022/04/03 05:17:30;;;;;;;8.37;6.80;;;;;;;6.45;50.80;99583.72;4218278;28;20255;-64
2022/04/03 05:19:33;;;;;;;7.77;6.80;;;;;;;6.60;49.83;99547.13;4219413;28;20792;-64
2022/04/03 05:21:36;;;;;;;7.70;6.07;;;;;;;6.29;50.58;99568.38;4214680;28;20237;-65
2022/04/03 05:23:38;;;;;;;9.87;7.50;;;;;;;7.05;49.91;99551.91;4210087;28;20324;-65
2022/04/03 05:25:40;;;;;;;8.37;6.30;;;;;;;6.50;50.72;99576.22;4210112;28;20219;-64
2022/04/03 05:27:44;;;;;;;7.27;6.20;;;;;;;7.13;49.40;99545.09;4213739;28;20229;-64
2022/04/03 05:29:46;;;;;;;8.70;6.63;;;;;;;6.80;49.44;99545.34;4216191;28;20222;-65
2022/04/03 05:31:47;;;;;;;8.77;6.57;;;;;;;6.64;50.18;99572.34;4219612;28;20311;-65
2022/04/03 05:33:49;;;;;;;7.63;6.83;;;;;;;6.22;50.74;99608.69;4208532;28;20669;-65
2022/04/03 05:35:51;;;;;;;7.53;6.57;;;;;;;7.01;49.43;99541.75;4214248;28;20279;-64
2022/04/03 05:37:53;;;;;;;9.10;6.93;;;;;;;7.38;48.61;99536.53;4212152;28;20254;-65
2022/04/03 05:39:54;;;;;;;8.03;6.87;;;;;;;6.63;49.78;99583.84;4209366;28;20238;-65
2022/04/03 05:41:56;;;;;;;9.47;7.60;;;;;;;6.61;49.17;99550.63;4209498;28;20242;-65
2022/04/03 05:43:58;;;;;;;9.83;7.87;;;;;;;6.83;49.15;99560.91;4218052;28;20270;-65
2022/04/03 05:46:00;;;;;;;8.13;6.60;;;;;;;6.99;49.55;99576.28;4207022;28;20239;-65
2022/04/03 05:48:02;;;;;;;8.80;7.13;;;;;;;6.64;49.59;99579.44;4211432;28;20247;-65
2022/04/03 05:50:06;;;;;;;8.20;7.40;;;;;;;7.08;48.59;99553.44;4214497;28;20252;-65
2022/04/03 05:52:08;;;;;;;8.13;6.60;;;;;;;7.69;47.68;99548.69;4214967;28;20293;-65
2022/04/03 05:54:10;;;;;;;8.70;7.23;;;;;;;7.01;49.08;99578.78;4206576;28;20250;-65
2022/04/03 05:56:12;;;;;;;8.63;6.47;;;;;;;6.72;50.03;99608.63;4218330;28;20265;-65
2022/04/03 05:58:14;;;;;;;8.20;6.70;;;;;;;6.70;49.62;99569.16;4203339;28;20228;-65
2022/04/03 06:00:18;;;;;;;7.27;6.33;;;;;;;6.87;49.75;99599.34;4214986;28;20722;-64
2022/04/03 06:02:19;;;;;;;30.87;21.70;;;;;;;6.33;50.83;99622.59;4215816;28;20719;-64
2022/04/03 06:04:22;;;;;;;13.17;9.03;;;;;;;6.54;50.62;99609.28;4218317;28;20803;-64
2022/04/03 06:06:24;;;;;;;9.70;6.63;;;;;;;5.70;51.27;99569.97;4218381;28;20592;-65
2022/04/03 06:08:25;;;;;;;25.67;16.47;;;;;;;5.34;52.76;99606.44;4213011;28;20350;-65
2022/04/03 06:10:28;;;;;;;31.97;21.10;;;;;;;6.25;51.57;99614.53;4207341;28;20260;-64
2022/04/03 06:12:29;;;;;;;152.17;80.60;;;;;;;6.05;52.00;99644.47;4214849;28;20242;-65
2022/04/03 06:14:31;;;;;;;39.77;22.73;;;;;;;5.73;52.91;99669.16;4213412;28;20255;-64
2022/04/03 06:16:33;;;;;;;170.70;71.23;;;;;;;6.28;51.93;99619.53;4210259;28;20699;-64
2022/04/03 06:18:34;;;;;;;140.87;63.20;;;;;;;5.89;52.78;99658.13;4209897;28;20309;-64
2022/04/03 06:20:37;;;;;;;164.63;74.23;;;;;;;6.20;51.63;99607.94;4218113;28;20239;-64
2022/04/03 06:22:38;;;;;;;67.17;36.47;;;;;;;5.82;53.76;99665.72;4218006;28;20288;-64
2022/04/03 06:24:40;;;;;;;34.43;23.70;;;;;;;6.33;52.08;99627.03;4213511;28;20270;-65
2022/04/03 06:26:42;;;;;;;272.40;205.13;;;;;;;5.96;52.73;99669.81;4213843;28;20291;-65
2022/04/03 06:28:44;;;;;;;21.83;19.37;;;;;;;6.31;51.86;99636.91;4218259;28;20302;-65
2022/04/03 06:30:46;;;;;;;12.40;10.63;;;;;;;6.20;51.95;99631.72;4211405;28;20233;-67
2022/04/03 06:32:48;;;;;;;11.10;8.50;;;;;;;5.56;52.80;99692.50;4210753;28;20605;-64
2022/04/03 06:34:50;;;;;;;11.97;10.20;;;;;;;6.89;50.62;99584.16;4215907;28;20255;-64
2022/04/03 06:36:53;;;;;;;15.13;13.67;;;;;;;6.25;51.75;99645.34;4205744;28;20279;-65
2022/04/03 06:38:55;;;;;;;10.33;8.17;;;;;;;7.20;49.26;99568.16;4211872;28;20231;-64
2022/04/03 06:40:58;;;;;;;11.87;9.50;;;;;;;6.47;50.84;99617.91;4207970;28;20263;-65
2022/04/03 06:43:00;;;;;;;10.17;9.07;;;;;;;5.88;51.36;99611.59;4228561;27;20261;-65
2022/04/03 06:45:03;;;;;;;10.23;8.47;;;;;;;5.74;52.31;99658.47;4214673;28;20270;-64
2022/04/03 06:47:06;;;;;;;8.57;7.20;;;;;;;6.30;52.33;99656.38;4212921;28;20233;-65
2022/04/03 06:49:08;;;;;;;8.67;7.77;;;;;;;6.30;51.30;99641.34;4209854;28;20602;-64
2022/04/03 06:51:09;;;;;;;10.03;7.70;;;;;;;5.94;52.35;99677.88;4221438;27;20880;-65
2022/04/03 06:53:11;;;;;;;8.50;7.70;;;;;;;5.08;54.38;99740.34;4211454;28;20696;-64
2022/04/03 06:55:13;;;;;;;9.57;7.20;;;;;;;6.27;52.42;99648.72;4209654;28;20257;-65
2022/04/03 06:57:15;;;;;;;10.27;7.13;;;;;;;5.79;53.78;99671.25;4211652;27;20272;-65
2022/04/03 06:59:17;;;;;;;8.30;7.47;;;;;;;7.11;50.77;99584.88;4213335;28;20657;-65
2022/04/03 07:01:19;;;;;;;12.57;10.87;;;;;;;7.33;50.50;99583.75;4212972;28;20260;-65
2022/04/03 07:03:20;;;;;;;13.57;10.33;;;;;;;6.58;51.08;99622.25;4209234;28;20255;-65
2022/04/03 07:05:23;;;;;;;16.60;10.87;;;;;;;6.41;50.51;99626.38;4212501;28;20314;-65
2022/04/03 07:07:25;;;;;;;9.93;8.77;;;;;;;6.06;51.54;99662.78;4210782;28;20372;-65
2022/04/03 07:09:27;;;;;;;8.93;7.30;;;;;;;6.36;51.59;99648.72;4207859;28;20773;-65
2022/04/03 07:11:28;;;;;;;8.37;7.37;;;;;;;6.11;52.63;99694.06;4217969;28;20255;-65
2022/04/03 07:13:35;;;;;;;10.50;8.80;;;;;;;7.01;49.60;99595.47;4216408;28;20307;-65
2022/04/03 07:15:37;;;;;;;14.10;12.57;;;;;;;6.69;50.94;99640.63;4212916;28;20263;-65
2022/04/03 07:17:40;;;;;;;10.27;9.13;;;;;;;6.20;51.21;99635.22;4212000;28;20232;-65
2022/04/03 07:19:42;;;;;;;13.33;8.40;;;;;;;6.60;50.16;99658.09;4214076;27;20225;-65
2022/04/03 07:21:44;;;;;;;10.60;8.27;;;;;;;7.36;49.60;99630.22;4214088;28;20646;-65
2022/04/03 07:23:45;;;;;;;18.07;14.67;;;;;;;6.93;50.57;99639.44;4214429;28;20359;-64
2022/04/03 07:25:47;;;;;;;9.37;7.77;;;;;;;6.97;50.16;99630.25;4217463;28;20340;-67
2022/04/03 07:27:49;;;;;;;11.53;7.90;;;;;;;7.07;51.11;99641.66;4209348;28;20228;-65
2022/04/03 07:29:50;;;;;;;10.47;8.00;;;;;;;7.01;50.66;99631.66;4213782;28;20264;-65
2022/04/03 07:31:53;;;;;;;20.83;16.63;;;;;;;6.43;51.76;99672.78;4216594;28;20272;-65
2022/04/03 07:33:55;;;;;;;20.20;13.90;;;;;;;6.14;51.73;99684.06;4214760;28;20267;-65
2022/04/03 07:36:01;;;;;;;37.23;24.17;;;;;;;6.82;51.23;99659.69;4213051;28;20241;-66
2022/04/03 07:38:03;;;;;;;352.43;194.57;;;;;;;6.31;51.75;99702.91;4220550;28;20253;-65
2022/04/03 07:40:07;;;;;;;149.57;84.07;;;;;;;6.47;52.95;99681.31;4212137;28;20238;-65
2022/04/03 07:42:09;;;;;;;13.40;11.00;;;;;;;7.46;49.31;99596.66;4190063;28;20229;-65
2022/04/03 07:44:12;;;;;;;21.27;16.13;;;;;;;5.19;54.45;99697.31;4192827;28;20276;-65
2022/04/03 07:46:17;;;;;;;13.07;10.10;;;;;;;4.60;53.84;99691.47;4194194;28;20653;-65
2022/04/03 07:48:22;;;;;;;12.97;11.67;;;;;;;6.64;51.52;99656.06;4193839;28;20721;-66
2022/04/03 07:50:23;;;;;;;13.67;12.40;;;;;;;6.71;50.86;99658.00;4194303;28;20262;-65
2022/04/03 07:52:25;;;;;;;17.97;16.33;;;;;;;5.79;51.34;99682.66;4193635;28;20264;-67
2022/04/03 07:54:26;;;;;;;11.67;9.87;;;;;;;6.98;49.51;99630.09;4193112;28;20744;-67
2022/04/03 07:56:30;;;;;;;11.67;9.13;;;;;;;5.86;52.97;99687.41;4193197;28;20723;-65
2022/04/03 07:58:33;;;;;;;14.57;11.50;;;;;;;6.66;51.01;99665.50;4193014;28;20241;-65
2022/04/03 08:00:35;;;;;;;7.33;5.73;;;;;;;6.35;49.85;99646.25;4194295;28;20775;-65
2022/04/03 08:02:38;;;;;;;9.07;6.40;;;;;;;6.26;51.17;99678.72;4193851;28;20248;-66
2022/04/03 08:04:39;;;;;;;8.70;7.37;;;;;;;7.02;49.08;99657.09;4192105;28;20232;-65
2022/04/03 08:06:41;;;;;;;12.03;9.60;;;;;;;7.06;49.33;99661.16;4194038;28;20881;-65
2022/04/03 08:08:43;;;;;;;7.97;6.70;;;;;;;6.35;51.28;99699.88;4193728;28;20264;-65
2022/04/03 08:10:44;;;;;;;9.30;7.03;;;;;;;7.10;50.66;99658.06;4197761;28;20234;-65
2022/04/03 08:12:48;;;;;;;7.30;6.47;;;;;;;7.04;50.83;99652.50;4208460;28;20263;-65
2022/04/03 08:14:50;;;;;;;8.67;7.73;;;;;;;4.35;54.65;99700.47;4193421;28;20269;-65
2022/04/03 08:16:51;;;;;;;8.97;7.30;;;;;;;4.39;55.05;99738.75;4206132;28;20268;-67
2022/04/03 08:18:53;;;;;;;8.50;7.70;;;;;;;6.15;51.88;99693.69;4192933;28;20241;-65
2022/04/03 08:20:55;;;;;;;9.37;8.47;;;;;;;5.84;52.77;99734.19;4193263;28;20754;-65
2022/04/03 08:22:58;;;;;;;12.40;11.13;;;;;;;5.87;50.60;99712.84;4191826;28;20306;-65
2022/04/03 08:24:59;;;;;;;8.07;7.27;;;;;;;6.60;50.67;99658.09;4192699;28;20324;-67
2022/04/03 08:27:06;;;;;;;8.40;7.60;;;;;;;5.41;53.58;99757.91;4193424;28;20276;-65
2022/04/03 08:29:08;;;;;;;8.90;8.00;;;;;;;7.15;50.62;99617.16;4192042;28;20341;-65
2022/04/03 08:31:09;;;;;;;9.13;6.70;;;;;;;5.99;53.05;99735.53;4194027;28;20252;-65
2022/04/03 08:33:11;;;;;;;8.57;7.13;;;;;;;5.74;53.27;99728.84;4208936;28;21018;-65
2022/04/03 08:35:16;;;;;;;7.67;6.87;;;;;;;6.61;51.16;99643.09;4210179;28;20237;-65
2022/04/03 08:37:18;;;;;;;8.43;7.00;;;;;;;6.80;51.82;99629.09;4209602;28;20242;-65
2022/04/03 08:39:20;;;;;;;8.00;7.20;;;;;;;6.02;53.66;99723.91;4222681;28;20320;-65
2022/04/03 08:41:22;;;;;;;8.50;7.40;;;;;;;5.74;53.93;99740.25;4207872;28;20233;-65
2022/04/03 08:43:24;;;;;;;7.53;6.50;;;;;;;6.47;52.70;99671.56;4207603;28;20646;-65
2022/04/03 08:45:26;;;;;;;9.13;7.47;;;;;;;5.95;53.14;99713.84;4209562;28;20265;-65
2022/04/03 08:47:29;;;;;;;7.80;6.90;;;;;;;5.11;54.09;99718.19;4209975;28;20271;-65
2022/04/03 08:49:32;;;;;;;8.20;7.40;;;;;;;7.06;52.38;99595.06;4209422;28;20264;-65
2022/04/03 08:51:39;;;;;;;9.40;7.40;;;;;;;5.87;53.80;99733.94;4209364;28;20221;-65
2022/04/03 08:53:44;;;;;;;9.80;6.50;;;;;;;5.34;54.39;99772.56;4208367;28;20275;-65
2022/04/03 08:55:46;;;;;;;8.70;7.80;;;;;;;7.25;52.57;99629.41;4209585;28;20265;-65
2022/04/03 08:57:48;;;;;;;10.17;7.27;;;;;;;6.04;51.86;99662.09;4208877;28;20652;-65
2022/04/03 08:59:51;;;;;;;8.20;6.93;;;;;;;6.17;53.76;99712.88;4208983;28;20322;-65
2022/04/03 09:01:53;;;;;;;8.00;7.20;;;;;;;5.18;53.12;99729.91;4206639;28;20334;-65
2022/04/03 09:03:55;;;;;;;7.33;6.60;;;;;;;5.95;51.70;99716.50;4207104;28;20265;-65
2022/04/03 09:06:17;;;;;;;7.73;6.90;;;;;;;6.99;51.84;99641.50;4208263;28;20314;-65
2022/04/03 09:08:19;;;;;;;10.93;7.43;;;;;;;6.93;51.86;99650.00;4195342;28;20227;-65
2022/04/03 09:10:21;;;;;;;8.00;7.20;;;;;;;6.52;51.70;99701.06;4221416;28;20230;-65
2022/04/03 09:12:23;;;;;;;7.87;6.23;;;;;;;6.08;50.52;99697.81;4209823;28;20324;-65
2022/04/03 09:14:25;;;;;;;7.70;6.00;;;;;;;6.84;50.56;99678.91;4206709;28;20341;-65
2022/04/03 09:16:39;;;;;;;7.47;5.70;;;;;;;6.48;49.70;99710.22;4209162;28;20661;-65
2022/04/03 09:18:49;;;;;;;7.10;5.67;;;;;;;6.30;50.58;99738.25;4209391;28;20707;-65
2022/04/03 09:20:51;;;;;;;6.87;6.03;;;;;;;7.13;49.28;99649.03;4209484;28;20234;-65
2022/04/03 09:22:59;;;;;;;6.10;5.50;;;;;;;5.84;49.96;99727.13;4207324;28;20308;-65
2022/04/03 09:25:09;;;;;;;6.93;6.00;;;;;;;6.62;50.47;99716.09;4207420;28;20263;-65
2022/04/03 09:27:11;;;;;;;7.97;5.27;;;;;;;4.89;51.98;99824.47;4208405;28;20233;-65
2022/04/03 09:29:15;;;;;;;168.60;117.33;;;;;;;5.75;50.38;99749.84;4208556;28;20274;-65
2022/04/03 09:31:26;;;;;;;13.40;10.03;;;;;;;7.69;48.70;99633.38;4198579;28;20515;-65
2022/04/03 09:33:28;;;;;;;8.87;5.73;;;;;;;7.79;48.02;99624.41;4195968;28;20238;-65
2022/04/03 09:35:59;;;;;;;56.67;28.83;;;;;;;7.52;46.80;99653.47;4206624;28;20352;-65
2022/04/03 09:38:16;;;;;;;406.83;215.43;;;;;;;7.89;46.34;99634.16;4206702;28;20234;-65
2022/04/03 09:40:33;;;;;;;40.50;23.67;;;;;;;7.80;45.80;99642.00;4196601;28;20246;-65
2022/04/03 09:42:34;;;;;;;55.47;29.83;;;;;;;7.86;47.22;99653.81;4205187;28;20258;-65